createdAt,value
2022-08-19T00:00:46.642Z,12.53
2022-08-19T00:01:52.865Z,12.54
2022-08-19T00:02:50.139Z,12.59
2022-08-19T00:03:46.681Z,12.53
2022-08-19T00:04:46.720Z,12.62
2022-08-19T00:05:46.707Z,12.60
2022-08-19T00:06:46.730Z,12.65
2022-08-19T00:07:46.738Z,12.67
2022-08-19T00:08:46.754Z,12.65
2022-08-19T00:09:46.767Z,12.64
2022-08-19T00:10:46.790Z,12.60
2022-08-19T00:11:46.798Z,12.53
2022-08-19T00:12:47.251Z,12.57
2022-08-19T00:13:46.826Z,12.52
2022-08-19T00:14:46.843Z,12.53
2022-08-19T00:15:46.857Z,12.59
2022-08-19T00:16:46.870Z,12.59
2022-08-19T00:17:46.890Z,12.57
2022-08-19T00:18:46.904Z,12.59
2022-08-19T00:19:46.912Z,12.52
2022-08-19T00:20:46.929Z,12.65
2022-08-19T00:21:46.947Z,12.57
2022-08-19T00:22:47.063Z,12.54
2022-08-19T00:23:46.972Z,12.56
2022-08-19T00:24:50.705Z,12.60
2022-08-19T00:25:48.665Z,12.59
2022-08-19T00:26:47.017Z,12.49
2022-08-19T00:27:47.029Z,12.52
2022-08-19T00:28:47.042Z,12.62
2022-08-19T00:29:47.062Z,12.56
2022-08-19T00:30:47.075Z,12.57
2022-08-19T00:31:47.087Z,12.56
2022-08-19T00:32:47.133Z,12.52
2022-08-19T00:33:47.121Z,12.59
2022-08-19T00:34:47.132Z,12.54
2022-08-19T00:35:47.148Z,12.53
2022-08-19T00:36:47.159Z,12.60
2022-08-19T00:37:47.175Z,12.52
2022-08-19T00:38:47.190Z,12.65
2022-08-19T00:39:49.141Z,12.64
2022-08-19T00:40:47.221Z,12.52
2022-08-19T00:41:47.859Z,12.57
2022-08-19T00:42:47.245Z,12.64
2022-08-19T00:43:47.266Z,12.50
2022-08-19T00:44:47.276Z,12.56
2022-08-19T00:45:47.290Z,12.59
2022-08-19T00:46:51.592Z,12.54
2022-08-19T00:47:47.318Z,12.60
2022-08-19T00:48:47.334Z,12.54
2022-08-19T00:49:47.349Z,12.47
2022-08-19T00:50:51.598Z,12.54
2022-08-19T00:51:47.376Z,12.50
2022-08-19T00:52:47.471Z,12.59
2022-08-19T00:53:47.406Z,12.53
2022-08-19T00:54:50.849Z,12.49
2022-08-19T00:55:47.429Z,12.56
2022-08-19T00:56:47.446Z,12.54
2022-08-19T00:57:47.462Z,12.42
2022-08-19T00:58:47.477Z,12.45
2022-08-19T01:00:01.879Z,12.49
2022-08-19T01:00:47.520Z,12.41
2022-08-19T01:01:47.598Z,12.38
2022-08-19T01:02:47.630Z,12.49
2022-08-19T01:03:58.168Z,12.47
2022-08-19T01:04:47.661Z,12.45
2022-08-19T01:05:47.578Z,12.46
2022-08-19T01:06:47.590Z,12.45
2022-08-19T01:07:47.608Z,12.47
2022-08-19T01:08:47.620Z,12.47
2022-08-19T01:09:47.633Z,12.52
2022-08-19T01:10:47.652Z,12.45
2022-08-19T01:11:47.663Z,12.50
2022-08-19T01:12:47.780Z,12.39
2022-08-19T01:13:49.862Z,12.41
2022-08-19T01:14:47.709Z,12.47
2022-08-19T01:15:47.724Z,12.41
2022-08-19T01:16:47.734Z,12.52
2022-08-19T01:17:47.751Z,12.52
2022-08-19T01:18:47.761Z,12.50
2022-08-19T01:19:47.779Z,12.41
2022-08-19T01:20:47.790Z,12.41
2022-08-19T01:21:47.808Z,12.47
2022-08-19T01:22:47.894Z,12.41
2022-08-19T01:23:47.849Z,12.45
2022-08-19T01:24:49.801Z,12.49
2022-08-19T01:25:47.865Z,12.45
2022-08-19T01:26:47.883Z,12.49
2022-08-19T01:27:47.898Z,12.47
2022-08-19T01:28:47.908Z,12.38
2022-08-19T01:29:47.974Z,12.47
2022-08-19T01:30:51.155Z,12.50
2022-08-19T01:31:47.952Z,12.47
2022-08-19T01:32:47.966Z,12.31
2022-08-19T01:33:47.979Z,12.35
2022-08-19T01:34:47.993Z,12.35
2022-08-19T01:35:48.009Z,12.35
2022-08-19T01:36:48.021Z,12.34
2022-08-19T01:37:48.041Z,12.37
2022-08-19T01:38:48.053Z,12.38
2022-08-19T01:39:48.168Z,12.38
2022-08-19T01:40:48.079Z,12.35
2022-08-19T01:41:48.095Z,12.27
2022-08-19T01:42:48.110Z,12.28
2022-08-19T01:44:17.061Z,12.27
2022-08-19T01:44:48.135Z,12.28
2022-08-19T01:45:48.151Z,12.27
2022-08-19T01:46:48.305Z,12.24
2022-08-19T01:47:51.682Z,12.31
2022-08-19T01:48:48.190Z,12.20
2022-08-19T01:49:48.211Z,12.24
2022-08-19T01:50:48.230Z,12.32
2022-08-19T01:51:48.234Z,12.23
2022-08-19T01:52:48.253Z,12.32
2022-08-19T01:53:48.266Z,12.20
2022-08-19T01:54:48.278Z,12.31
2022-08-19T01:55:48.293Z,12.28
2022-08-19T01:56:48.309Z,12.32
2022-08-19T01:57:48.324Z,12.31
2022-08-19T01:58:48.334Z,12.37
2022-08-19T01:59:48.353Z,12.34
2022-08-19T02:00:48.363Z,12.32
2022-08-19T02:01:48.495Z,12.35
2022-08-19T02:02:48.396Z,12.27
2022-08-19T02:03:48.505Z,12.27
2022-08-19T02:04:48.423Z,12.21
2022-08-19T02:05:48.438Z,12.14
2022-08-19T02:06:48.453Z,12.21
2022-08-19T02:07:48.466Z,12.29
2022-08-19T02:08:48.479Z,12.16
2022-08-19T02:09:48.491Z,12.16
2022-08-19T02:10:48.510Z,12.19
2022-08-19T02:11:48.521Z,12.20
2022-08-19T02:12:48.599Z,12.27
2022-08-19T02:13:48.549Z,12.19
2022-08-19T02:14:48.563Z,12.21
2022-08-19T02:15:48.575Z,12.20
2022-08-19T02:16:48.598Z,12.21
2022-08-19T02:17:48.603Z,12.14
2022-08-19T02:18:48.628Z,12.16
2022-08-19T02:19:48.733Z,12.09
2022-08-19T02:20:48.648Z,12.01
2022-08-19T02:21:48.664Z,12.04
2022-08-19T02:22:48.726Z,11.99
2022-08-19T02:23:48.693Z,12.07
2022-08-19T02:24:48.701Z,12.05
2022-08-19T02:25:48.722Z,12.07
2022-08-19T02:26:48.733Z,12.05
2022-08-19T02:27:48.747Z,12.07
2022-08-19T02:28:48.761Z,12.16
2022-08-19T02:29:48.789Z,12.13
2022-08-19T02:30:48.807Z,12.13
2022-08-19T02:31:48.805Z,12.21
2022-08-19T02:32:48.817Z,12.14
2022-08-19T02:33:48.832Z,12.28
2022-08-19T02:34:48.850Z,12.21
2022-08-19T02:35:48.858Z,12.24
2022-08-19T02:36:51.819Z,12.31
2022-08-19T02:37:48.889Z,12.27
2022-08-19T02:38:55.001Z,12.34
2022-08-19T02:39:48.981Z,12.29
2022-08-19T02:40:48.934Z,12.31
2022-08-19T02:41:48.944Z,12.31
2022-08-19T02:42:48.961Z,12.35
2022-08-19T02:44:28.671Z,12.28
2022-08-19T02:44:48.990Z,12.23
2022-08-19T02:45:49.004Z,12.20
2022-08-19T02:46:49.020Z,12.16
2022-08-19T02:47:49.032Z,12.09
2022-08-19T02:48:49.046Z,12.09
2022-08-19T02:49:49.061Z,12.04
2022-08-19T02:50:51.939Z,12.02
2022-08-19T02:51:49.090Z,11.95
2022-08-19T02:52:49.163Z,11.98
2022-08-19T02:53:49.115Z,11.96
2022-08-19T02:54:49.132Z,11.91
2022-08-19T02:55:49.143Z,11.91
2022-08-19T02:56:49.161Z,11.96
2022-08-19T02:57:49.174Z,12.01
2022-08-19T02:58:49.187Z,12.04
2022-08-19T02:59:49.200Z,11.98
2022-08-19T03:00:49.215Z,11.90
2022-08-19T03:01:49.225Z,12.04
2022-08-19T03:02:49.271Z,11.90
2022-08-19T03:03:49.257Z,11.99
2022-08-19T03:04:49.266Z,12.05
2022-08-19T03:05:56.268Z,12.13
2022-08-19T03:06:49.314Z,12.04
2022-08-19T03:07:49.311Z,11.99
2022-08-19T03:08:49.324Z,11.90
2022-08-19T03:09:49.340Z,12.02
2022-08-19T03:10:49.454Z,11.88
2022-08-19T03:11:49.369Z,11.95
2022-08-19T03:12:49.445Z,11.99
2022-08-19T03:13:49.396Z,11.99
2022-08-19T03:14:49.408Z,12.07
2022-08-19T03:15:49.431Z,12.05
2022-08-19T03:16:49.437Z,11.99
2022-08-19T03:17:49.453Z,11.99
2022-08-19T03:18:49.461Z,12.02
2022-08-19T03:19:49.476Z,12.10
2022-08-19T03:20:49.495Z,12.10
2022-08-19T03:21:49.506Z,12.09
2022-08-19T03:22:49.520Z,12.13
2022-08-19T03:23:49.541Z,12.13
2022-08-19T03:24:49.554Z,12.28
2022-08-19T03:26:03.894Z,12.16
2022-08-19T03:26:49.577Z,12.23
2022-08-19T03:27:49.596Z,12.27
2022-08-19T03:28:51.563Z,12.20
2022-08-19T03:29:49.617Z,12.32
2022-08-19T03:30:49.632Z,12.23
2022-08-19T03:31:52.540Z,12.23
2022-08-19T03:32:51.456Z,12.27
2022-08-19T03:33:49.678Z,12.29
2022-08-19T03:34:49.689Z,12.27
2022-08-19T03:35:49.706Z,12.32
2022-08-19T03:36:49.717Z,12.32
2022-08-19T03:37:49.731Z,12.21
2022-08-19T03:38:49.746Z,12.27
2022-08-19T03:39:49.835Z,12.32
2022-08-19T03:40:49.772Z,12.29
2022-08-19T03:41:49.789Z,12.35
2022-08-19T03:42:49.805Z,12.29
2022-08-19T03:43:49.822Z,12.28
2022-08-19T03:44:49.829Z,12.34
2022-08-19T03:45:49.845Z,12.32
2022-08-19T03:46:49.960Z,12.34
2022-08-19T03:47:49.869Z,12.31
2022-08-19T03:48:49.892Z,12.38
2022-08-19T03:49:49.902Z,12.29
2022-08-19T03:50:49.914Z,12.32
2022-08-19T03:51:49.928Z,12.34
2022-08-19T03:52:49.941Z,12.32
2022-08-19T03:53:49.959Z,12.31
2022-08-19T03:54:49.971Z,12.35
2022-08-19T03:55:49.984Z,12.32
2022-08-19T03:56:50.000Z,12.39
2022-08-19T03:57:50.017Z,12.32
2022-08-19T03:58:50.027Z,12.34
2022-08-19T03:59:50.041Z,12.29
2022-08-19T04:00:50.102Z,12.34
2022-08-19T04:01:50.069Z,12.24
2022-08-19T04:02:58.171Z,12.31
2022-08-19T04:03:50.103Z,12.35
2022-08-19T04:04:50.116Z,12.32
2022-08-19T04:05:50.127Z,12.37
2022-08-19T04:06:50.245Z,12.29
2022-08-19T04:07:50.155Z,12.34
2022-08-19T04:08:50.176Z,12.37
2022-08-19T04:09:50.187Z,12.38
2022-08-19T04:10:50.196Z,12.31
2022-08-19T04:11:50.217Z,12.34
2022-08-19T04:12:50.229Z,12.38
2022-08-19T04:13:50.246Z,12.32
2022-08-19T04:14:50.252Z,12.38
2022-08-19T04:15:50.265Z,12.34
2022-08-19T04:16:50.279Z,12.38
2022-08-19T04:17:50.299Z,12.39
2022-08-19T04:18:50.310Z,12.42
2022-08-19T04:19:50.324Z,12.41
2022-08-19T04:20:50.349Z,12.37
2022-08-19T04:21:50.355Z,12.38
2022-08-19T04:22:50.366Z,12.41
2022-08-19T04:23:50.381Z,12.41
2022-08-19T04:24:50.397Z,12.38
2022-08-19T04:25:50.414Z,12.38
2022-08-19T04:26:50.426Z,12.38
2022-08-19T04:27:50.440Z,12.39
2022-08-19T04:28:50.455Z,12.41
2022-08-19T04:29:50.466Z,12.38
2022-08-19T04:30:50.480Z,12.39
2022-08-19T04:31:50.494Z,12.47
2022-08-19T04:32:50.611Z,12.46
2022-08-19T04:33:50.520Z,12.42
2022-08-19T04:35:02.002Z,12.42
2022-08-19T04:35:50.549Z,12.38
2022-08-19T04:36:50.569Z,12.38
2022-08-19T04:37:50.683Z,12.39
2022-08-19T04:38:50.597Z,12.42
2022-08-19T04:39:50.703Z,12.39
2022-08-19T04:40:50.623Z,12.41
2022-08-19T04:41:50.636Z,12.38
2022-08-19T04:42:50.655Z,12.37
2022-08-19T04:43:50.664Z,12.45
2022-08-19T04:44:50.684Z,12.38
2022-08-19T04:45:50.698Z,12.37
2022-08-19T04:46:51.565Z,12.32
2022-08-19T04:47:58.516Z,12.31
2022-08-19T04:48:50.741Z,12.28
2022-08-19T04:49:50.761Z,12.38
2022-08-19T04:50:50.767Z,12.29
2022-08-19T04:51:50.782Z,12.38
2022-08-19T04:52:50.796Z,12.41
2022-08-19T04:53:50.808Z,12.32
2022-08-19T04:54:50.823Z,12.38
2022-08-19T04:55:50.837Z,12.37
2022-08-19T04:56:50.850Z,12.38
2022-08-19T04:57:50.862Z,12.41
2022-08-19T04:58:50.878Z,12.45
2022-08-19T04:59:50.890Z,12.41
2022-08-19T05:00:50.957Z,12.39
2022-08-19T05:01:50.921Z,12.41
2022-08-19T05:02:50.943Z,12.37
2022-08-19T05:03:50.950Z,12.41
2022-08-19T05:04:50.967Z,12.41
2022-08-19T05:05:50.977Z,12.46
2022-08-19T05:06:50.993Z,12.34
2022-08-19T05:07:51.004Z,12.46
2022-08-19T05:08:51.026Z,12.39
2022-08-19T05:09:58.621Z,12.41
2022-08-19T05:10:51.048Z,12.47
2022-08-19T05:11:51.067Z,12.45
2022-08-19T05:12:51.180Z,12.46
2022-08-19T05:13:51.090Z,12.41
2022-08-19T05:14:51.108Z,12.38
2022-08-19T05:15:51.121Z,12.45
2022-08-19T05:17:02.479Z,12.34
2022-08-19T05:17:51.151Z,12.42
2022-08-19T05:18:51.163Z,12.38
2022-08-19T05:19:51.178Z,12.42
2022-08-19T05:20:51.191Z,12.38
2022-08-19T05:21:51.215Z,12.41
2022-08-19T05:22:51.317Z,12.41
2022-08-19T05:23:51.233Z,12.41
2022-08-19T05:25:11.335Z,12.47
2022-08-19T05:25:51.263Z,12.52
2022-08-19T05:26:51.279Z,12.47
2022-08-19T05:27:51.289Z,12.46
2022-08-19T05:28:54.791Z,12.37
2022-08-19T05:29:51.323Z,12.41
2022-08-19T05:30:51.341Z,12.41
2022-08-19T05:31:51.512Z,12.42
2022-08-19T05:32:51.364Z,12.47
2022-08-19T05:33:51.385Z,12.42
2022-08-19T05:34:51.397Z,12.47
2022-08-19T05:35:51.403Z,12.49
2022-08-19T05:36:51.424Z,12.49
2022-08-19T05:37:52.678Z,12.46
2022-08-19T05:38:51.447Z,12.47
2022-08-19T05:39:51.839Z,12.38
2022-08-19T05:40:51.476Z,12.41
2022-08-19T05:41:51.491Z,12.35
2022-08-19T05:42:55.037Z,12.35
2022-08-19T05:43:51.522Z,12.42
2022-08-19T05:44:51.538Z,12.41
2022-08-19T05:45:51.545Z,12.37
2022-08-19T05:46:51.569Z,12.42
2022-08-19T05:47:51.574Z,12.37
2022-08-19T05:48:51.592Z,12.38
2022-08-19T05:49:51.611Z,12.37
2022-08-19T05:50:51.624Z,12.32
2022-08-19T05:51:51.634Z,12.39
2022-08-19T05:52:51.891Z,12.41
2022-08-19T05:53:51.674Z,12.39
2022-08-19T05:54:51.676Z,12.45
2022-08-19T05:55:51.691Z,12.49
2022-08-19T05:56:51.704Z,12.46
2022-08-19T05:57:51.718Z,12.52
2022-08-19T05:58:51.739Z,12.62
2022-08-19T05:59:52.803Z,12.53
2022-08-19T06:00:51.763Z,12.42
2022-08-19T06:01:51.777Z,12.41
2022-08-19T06:02:52.086Z,12.34
2022-08-19T06:03:51.801Z,12.27
2022-08-19T06:04:51.821Z,12.19
2022-08-19T06:05:52.338Z,12.10
2022-08-19T06:06:51.847Z,12.17
2022-08-19T06:07:51.868Z,12.16
2022-08-19T06:08:51.875Z,12.14
2022-08-19T06:09:58.932Z,12.20
2022-08-19T06:10:51.906Z,12.16
2022-08-19T06:11:55.723Z,12.20
2022-08-19T06:12:51.932Z,12.31
2022-08-19T06:13:51.948Z,12.17
2022-08-19T06:15:00.520Z,12.13
2022-08-19T06:15:51.973Z,11.99
2022-08-19T06:16:51.994Z,11.95
2022-08-19T06:17:52.138Z,11.88
2022-08-19T06:18:52.014Z,12.01
2022-08-19T06:19:52.030Z,11.94
2022-08-19T06:20:55.778Z,11.99
2022-08-19T06:21:52.058Z,11.98
2022-08-19T06:22:52.076Z,12.10
2022-08-19T06:23:52.083Z,12.10
2022-08-19T06:24:52.107Z,12.13
2022-08-19T06:25:52.113Z,12.20
2022-08-19T06:26:52.129Z,12.20
2022-08-19T06:28:13.911Z,12.32
2022-08-19T06:28:52.159Z,12.31
2022-08-19T06:29:52.176Z,12.31
2022-08-19T06:30:52.188Z,12.28
2022-08-19T06:31:52.301Z,12.31
2022-08-19T06:32:52.213Z,12.34
2022-08-19T06:33:52.227Z,12.37
2022-08-19T06:34:52.244Z,12.24
2022-08-19T06:35:52.255Z,12.32
2022-08-19T06:36:52.269Z,12.27
2022-08-19T06:37:52.283Z,12.24
2022-08-19T06:38:52.298Z,12.24
2022-08-19T06:39:52.374Z,12.27
2022-08-19T06:40:52.326Z,12.28
2022-08-19T06:41:55.430Z,12.45
2022-08-19T06:42:54.840Z,12.37
2022-08-19T06:43:53.987Z,12.37
2022-08-19T06:44:53.581Z,12.45
2022-08-19T06:45:52.396Z,12.37
2022-08-19T06:46:53.578Z,12.24
2022-08-19T06:47:52.424Z,12.23
2022-08-19T06:48:52.442Z,12.31
2022-08-19T06:49:52.454Z,12.29
2022-08-19T06:50:52.499Z,12.31
2022-08-19T06:51:52.497Z,12.37
2022-08-19T06:52:52.572Z,12.28
2022-08-19T06:53:52.593Z,12.34
2022-08-19T06:54:55.921Z,12.32
2022-08-19T06:55:52.540Z,12.34
2022-08-19T06:56:52.552Z,12.23
2022-08-19T06:57:52.689Z,12.16
2022-08-19T06:58:52.579Z,12.12
2022-08-19T06:59:52.596Z,12.16
2022-08-19T07:00:52.608Z,12.20
2022-08-19T07:01:52.627Z,12.29
2022-08-19T07:03:00.130Z,12.21
2022-08-19T07:03:52.653Z,12.13
2022-08-19T07:04:52.964Z,12.04
2022-08-19T07:05:52.679Z,11.96
2022-08-19T07:06:55.244Z,11.91
2022-08-19T07:07:52.726Z,11.91
2022-08-19T07:08:52.734Z,11.96
2022-08-19T07:09:59.248Z,11.94
2022-08-19T07:10:52.761Z,11.88
2022-08-19T07:11:52.770Z,11.95
2022-08-19T07:12:52.981Z,11.95
2022-08-19T07:13:54.117Z,11.98
2022-08-19T07:14:52.808Z,12.07
2022-08-19T07:15:52.823Z,12.10
2022-08-19T07:16:52.834Z,12.05
2022-08-19T07:17:52.960Z,12.02
2022-08-19T07:18:52.868Z,12.07
2022-08-19T07:19:54.134Z,12.01
2022-08-19T07:20:52.891Z,11.91
2022-08-19T07:21:52.914Z,12.01
2022-08-19T07:22:53.195Z,11.96
2022-08-19T07:23:52.934Z,11.86
2022-08-19T07:24:52.952Z,11.98
2022-08-19T07:25:53.413Z,12.07
2022-08-19T07:26:52.976Z,12.05
2022-08-19T07:27:54.411Z,12.12
2022-08-19T07:28:53.105Z,12.12
2022-08-19T07:29:55.761Z,12.14
2022-08-19T07:30:53.091Z,12.28
2022-08-19T07:31:53.045Z,12.24
2022-08-19T07:32:53.058Z,12.31
2022-08-19T07:33:54.820Z,12.32
2022-08-19T07:34:53.095Z,12.28
2022-08-19T07:35:53.120Z,12.29
2022-08-19T07:36:53.116Z,12.32
2022-08-19T07:37:53.303Z,12.37
2022-08-19T07:38:53.145Z,12.34
2022-08-19T07:39:53.215Z,12.32
2022-08-19T07:40:53.171Z,12.34
2022-08-19T07:41:53.184Z,12.31
2022-08-19T07:42:53.206Z,12.38
2022-08-19T07:43:53.216Z,12.41
2022-08-19T07:44:53.233Z,12.34
2022-08-19T07:45:53.245Z,12.32
2022-08-19T07:46:53.446Z,12.34
2022-08-19T07:47:53.269Z,12.29
2022-08-19T07:48:53.284Z,12.38
2022-08-19T07:49:53.296Z,12.39
2022-08-19T07:50:53.309Z,12.38
2022-08-19T07:51:53.322Z,12.38
2022-08-19T07:52:53.337Z,12.31
2022-08-19T07:53:53.358Z,12.28
2022-08-19T07:54:53.374Z,12.32
2022-08-19T07:55:53.383Z,12.28
2022-08-19T07:56:53.394Z,12.28
2022-08-19T07:57:53.409Z,12.14
2022-08-19T07:58:53.487Z,12.19
2022-08-19T07:59:53.437Z,12.24
2022-08-19T08:00:53.450Z,12.24
2022-08-19T08:01:53.527Z,12.21
2022-08-19T08:02:55.406Z,12.28
2022-08-19T08:03:53.491Z,12.31
2022-08-19T08:04:53.506Z,12.27
2022-08-19T08:05:53.520Z,12.32
2022-08-19T08:06:53.538Z,12.35
2022-08-19T08:07:53.561Z,12.31
2022-08-19T08:08:53.564Z,12.28
2022-08-19T08:10:54.733Z,12.32
2022-08-19T08:11:53.611Z,12.24
2022-08-19T08:13:09.962Z,12.31
2022-08-19T08:14:01.083Z,12.31
2022-08-19T08:14:55.866Z,12.39
2022-08-19T08:15:55.944Z,12.37
2022-08-19T08:16:53.675Z,12.37
2022-08-19T08:17:53.690Z,12.42
2022-08-19T08:18:53.703Z,12.37
2022-08-19T08:19:53.714Z,12.35
2022-08-19T08:20:53.733Z,12.34
2022-08-19T08:21:53.841Z,12.34
2022-08-19T08:22:53.910Z,12.31
2022-08-19T08:23:56.050Z,12.27
2022-08-19T08:24:53.785Z,12.31
2022-08-19T08:25:53.800Z,12.27
2022-08-19T08:26:57.423Z,12.29
2022-08-19T08:27:53.878Z,12.29
2022-08-19T08:28:53.847Z,12.20
2022-08-19T08:29:53.852Z,12.32
2022-08-19T08:30:53.866Z,12.24
2022-08-19T08:32:00.023Z,12.27
2022-08-19T08:32:53.899Z,12.32
2022-08-19T08:33:53.907Z,12.29
2022-08-19T08:34:53.925Z,12.38
2022-08-19T08:35:53.937Z,12.41
2022-08-19T08:36:53.955Z,12.45
2022-08-19T08:37:54.117Z,12.37
2022-08-19T08:39:54.035Z,12.38
2022-08-19T08:40:54.011Z,12.39
2022-08-19T08:41:54.021Z,12.32
2022-08-19T08:42:54.221Z,12.41
2022-08-19T08:43:54.051Z,12.52
2022-08-19T08:45:54.079Z,12.38
2022-08-19T08:46:54.089Z,12.47
2022-08-19T08:47:54.184Z,12.45
2022-08-19T08:48:54.118Z,12.47
2022-08-19T08:49:54.133Z,12.50
2022-08-19T08:50:54.144Z,12.59
2022-08-19T08:51:59.571Z,12.53
2022-08-19T08:52:54.429Z,12.56
2022-08-19T08:53:55.936Z,12.64
2022-08-19T08:54:55.210Z,12.62
2022-08-19T08:55:54.218Z,12.65
2022-08-19T08:56:54.231Z,12.75
2022-08-19T08:57:54.441Z,12.74
2022-08-19T08:58:54.889Z,12.71
2022-08-19T08:59:54.272Z,12.70
2022-08-19T09:00:54.290Z,12.79
2022-08-19T09:01:54.430Z,12.79
2022-08-19T09:02:54.320Z,12.87
2022-08-19T09:03:54.329Z,12.96
2022-08-19T09:04:54.344Z,13.03
2022-08-19T09:05:54.359Z,13.08
2022-08-19T09:06:54.374Z,13.10
2022-08-19T09:07:54.603Z,13.15
2022-08-19T09:08:56.729Z,13.26
2022-08-19T09:09:54.414Z,13.22
2022-08-19T09:10:55.266Z,13.25
2022-08-19T09:11:54.443Z,13.28
2022-08-19T09:12:54.455Z,13.17
2022-08-19T09:13:54.473Z,13.11
2022-08-19T09:14:54.486Z,13.17
2022-08-19T09:15:54.500Z,13.36
2022-08-19T09:16:54.515Z,13.33
2022-08-19T09:17:54.710Z,13.38
2022-08-19T09:18:54.599Z,13.41
2022-08-19T09:19:54.559Z,13.46
2022-08-19T09:20:54.575Z,13.48
2022-08-19T09:21:54.588Z,13.59
2022-08-19T09:22:54.601Z,13.59
2022-08-19T09:23:54.615Z,13.46
2022-08-19T09:24:54.630Z,13.46
2022-08-19T09:25:54.648Z,13.52
2022-08-19T09:26:54.662Z,13.49
2022-08-19T09:27:55.314Z,13.57
2022-08-19T09:28:54.687Z,13.51
2022-08-19T09:29:54.704Z,13.49
2022-08-19T09:30:54.716Z,13.51
2022-08-19T09:31:54.733Z,13.57
2022-08-19T09:32:54.760Z,13.57
2022-08-19T09:33:54.765Z,13.36
2022-08-19T09:34:54.780Z,13.41
2022-08-19T09:35:54.791Z,13.19
2022-08-19T09:36:54.957Z,13.25
2022-08-19T09:37:57.624Z,13.15
2022-08-19T09:38:54.840Z,13.20
2022-08-19T09:39:55.043Z,13.30
2022-08-19T09:40:54.869Z,13.41
2022-08-19T09:41:54.879Z,13.48
2022-08-19T09:42:54.894Z,13.59
2022-08-19T09:43:54.909Z,13.71
2022-08-19T09:44:54.923Z,13.78
2022-08-19T09:45:54.939Z,13.87
2022-08-19T09:46:54.958Z,13.85
2022-08-19T09:47:55.506Z,13.96
2022-08-19T09:48:54.979Z,13.99
2022-08-19T09:49:54.996Z,13.88
2022-08-19T09:50:55.013Z,13.96
2022-08-19T09:51:55.027Z,13.95
2022-08-19T09:52:57.292Z,13.97
2022-08-19T09:53:55.067Z,14.06
2022-08-19T09:54:55.072Z,14.12
2022-08-19T09:55:55.092Z,14.15
2022-08-19T09:56:55.102Z,14.24
2022-08-19T09:57:55.320Z,14.20
2022-08-19T09:58:55.134Z,14.10
2022-08-19T09:59:55.145Z,14.00
2022-08-19T10:00:55.221Z,13.97
2022-08-19T10:01:55.174Z,13.95
2022-08-19T10:02:55.196Z,13.88
2022-08-19T10:03:55.210Z,14.00
2022-08-19T10:04:55.238Z,14.18
2022-08-19T10:05:55.608Z,14.03
2022-08-19T10:06:55.519Z,14.10
2022-08-19T10:07:55.401Z,14.09
2022-08-19T10:08:55.291Z,14.18
2022-08-19T10:09:55.299Z,14.17
2022-08-19T10:10:55.317Z,14.15
2022-08-19T10:11:55.361Z,14.15
2022-08-19T10:12:55.344Z,14.20
2022-08-19T10:13:55.359Z,14.22
2022-08-19T10:14:55.372Z,14.25
2022-08-19T10:15:55.711Z,14.25
2022-08-19T10:16:55.402Z,14.25
2022-08-19T10:17:55.677Z,14.28
2022-08-19T10:18:59.046Z,14.29
2022-08-19T10:19:56.124Z,14.42
2022-08-19T10:20:55.470Z,14.50
2022-08-19T10:21:55.842Z,14.60
2022-08-19T10:22:55.498Z,14.60
2022-08-19T10:23:55.506Z,14.68
2022-08-19T10:24:55.527Z,14.69
2022-08-19T10:25:55.539Z,14.61
2022-08-19T10:26:55.860Z,14.68
2022-08-19T10:27:56.012Z,14.64
2022-08-19T10:28:55.581Z,14.51
2022-08-19T10:29:55.603Z,14.50
2022-08-19T10:30:55.613Z,14.47
2022-08-19T10:32:01.161Z,14.40
2022-08-19T10:32:55.678Z,14.32
2022-08-19T10:33:55.661Z,14.06
2022-08-19T10:34:57.204Z,13.33
2022-08-19T10:35:56.815Z,13.41
2022-08-19T10:37:00.394Z,13.17
2022-08-19T10:38:01.991Z,13.08
2022-08-19T10:38:56.974Z,13.10
2022-08-19T10:39:55.848Z,13.22
2022-08-19T10:40:55.770Z,13.19
2022-08-19T10:41:55.827Z,13.38
2022-08-19T10:42:55.803Z,13.52
2022-08-19T10:43:55.813Z,13.66
2022-08-19T10:44:55.827Z,13.69
2022-08-19T10:45:55.844Z,13.63
2022-08-19T10:46:55.857Z,13.51
2022-08-19T10:47:56.115Z,13.45
2022-08-19T10:48:55.889Z,13.41
2022-08-19T10:49:55.911Z,13.46
2022-08-19T10:50:55.921Z,13.45
2022-08-19T10:51:55.942Z,13.39
2022-08-19T10:52:56.370Z,13.29
2022-08-19T10:53:55.966Z,13.33
2022-08-19T10:54:55.977Z,13.38
2022-08-19T10:55:55.991Z,13.45
2022-08-19T10:56:56.012Z,13.46
2022-08-19T10:58:03.198Z,13.60
2022-08-19T10:58:56.039Z,13.66
2022-08-19T10:59:56.055Z,13.66
2022-08-19T11:00:56.216Z,13.60
2022-08-19T11:01:56.777Z,13.69
2022-08-19T11:02:56.101Z,13.71
2022-08-19T11:03:56.120Z,13.62
2022-08-19T11:04:56.132Z,13.62
2022-08-19T11:05:56.151Z,13.28
2022-08-19T11:06:56.162Z,13.22
2022-08-19T11:07:56.444Z,13.08
2022-08-19T11:08:56.189Z,13.20
2022-08-19T11:09:56.210Z,13.30
2022-08-19T11:10:56.221Z,13.33
2022-08-19T11:11:56.244Z,13.51
2022-08-19T11:12:56.252Z,13.44
2022-08-19T11:13:56.270Z,13.57
2022-08-19T11:14:56.283Z,13.44
2022-08-19T11:15:56.294Z,13.46
2022-08-19T11:16:56.314Z,13.46
2022-08-19T11:17:56.327Z,13.48
2022-08-19T11:18:56.344Z,13.48
2022-08-19T11:19:56.356Z,13.55
2022-08-19T11:20:56.373Z,13.48
2022-08-19T11:21:57.514Z,13.42
2022-08-19T11:22:56.402Z,13.38
2022-08-19T11:23:56.424Z,13.49
2022-08-19T11:24:56.434Z,13.41
2022-08-19T11:25:56.450Z,13.33
2022-08-19T11:26:56.465Z,13.32
2022-08-19T11:27:56.476Z,13.26
2022-08-19T11:28:56.486Z,13.19
2022-08-19T11:29:56.506Z,13.26
2022-08-19T11:30:56.522Z,13.25
2022-08-19T11:31:56.534Z,13.10
2022-08-19T11:32:56.548Z,13.19
2022-08-19T11:33:56.563Z,13.28
2022-08-19T11:34:56.583Z,13.20
2022-08-19T11:35:56.615Z,13.32
2022-08-19T11:36:56.615Z,13.39
2022-08-19T11:37:56.625Z,13.44
2022-08-19T11:38:56.637Z,13.45
2022-08-19T11:39:56.720Z,13.42
2022-08-19T11:40:56.670Z,13.49
2022-08-19T11:41:56.687Z,13.63
2022-08-19T11:42:56.700Z,13.71
2022-08-19T11:43:56.711Z,13.64
2022-08-19T11:44:56.739Z,13.67
2022-08-19T11:45:56.747Z,13.52
2022-08-19T11:46:56.754Z,13.45
2022-08-19T11:47:56.808Z,13.39
2022-08-19T11:48:56.787Z,13.36
2022-08-19T11:49:56.899Z,13.29
2022-08-19T11:50:56.818Z,13.33
2022-08-19T11:51:56.835Z,13.42
2022-08-19T11:52:56.850Z,13.48
2022-08-19T11:53:56.860Z,13.51
2022-08-19T11:54:56.875Z,13.49
2022-08-19T11:55:56.913Z,13.42
2022-08-19T11:56:57.198Z,13.46
2022-08-19T11:57:56.921Z,13.48
2022-08-19T11:58:56.933Z,13.48
2022-08-19T11:59:56.952Z,13.54
2022-08-19T12:00:56.965Z,13.48
2022-08-19T12:01:56.983Z,13.49
2022-08-19T12:02:56.992Z,13.54
2022-08-19T12:03:57.099Z,13.42
2022-08-19T12:04:57.026Z,13.28
2022-08-19T12:05:57.039Z,13.26
2022-08-19T12:06:57.056Z,13.29
2022-08-19T12:07:57.071Z,13.19
2022-08-19T12:08:57.083Z,13.32
2022-08-19T12:09:57.098Z,13.51
2022-08-19T12:10:57.114Z,13.60
2022-08-19T12:11:57.126Z,13.71
2022-08-19T12:12:58.744Z,13.88
2022-08-19T12:13:57.158Z,13.99
2022-08-19T12:14:57.174Z,14.18
2022-08-19T12:15:57.187Z,14.33
2022-08-19T12:16:57.203Z,14.36
2022-08-19T12:17:57.215Z,14.45
2022-08-19T12:18:57.236Z,14.47
2022-08-19T12:19:57.248Z,14.65
2022-08-19T12:20:57.262Z,14.68
2022-08-19T12:21:57.280Z,14.58
2022-08-19T12:22:57.295Z,14.58
2022-08-19T12:23:57.306Z,14.52
2022-08-19T12:24:57.324Z,14.62
2022-08-19T12:25:57.337Z,14.58
2022-08-19T12:26:59.058Z,14.55
2022-08-19T12:27:57.897Z,14.51
2022-08-19T12:28:57.480Z,14.40
2022-08-19T12:29:57.413Z,14.28
2022-08-19T12:30:57.417Z,14.00
2022-08-19T12:31:57.426Z,13.78
2022-08-19T12:32:57.440Z,13.69
2022-08-19T12:33:57.460Z,13.62
2022-08-19T12:34:57.473Z,13.73
2022-08-19T12:35:57.491Z,13.75
2022-08-19T12:36:57.502Z,13.73
2022-08-19T12:37:57.803Z,13.75
2022-08-19T12:38:57.537Z,13.73
2022-08-19T12:39:57.577Z,13.73
2022-08-19T12:41:00.329Z,13.63
2022-08-19T12:41:57.582Z,13.60
2022-08-19T12:42:57.599Z,13.66
2022-08-19T12:43:57.605Z,13.62
2022-08-19T12:44:57.626Z,13.62
2022-08-19T12:45:57.639Z,13.67
2022-08-19T12:46:57.656Z,13.60
2022-08-19T12:47:57.922Z,13.54
2022-08-19T12:48:57.699Z,13.46
2022-08-19T12:49:57.700Z,13.46
2022-08-19T12:50:57.737Z,13.38
2022-08-19T12:51:57.731Z,13.36
2022-08-19T12:52:57.749Z,13.26
2022-08-19T12:53:57.761Z,13.08
2022-08-19T12:54:57.777Z,13.15
2022-08-19T12:55:57.796Z,13.22